Time;durP1;ratioP1;P1;durP2;ratioP2;P2;SDS_P1;SDS_P2;PMS_P1;PMS_P2;Temp;Humidity;BMP_temperature;BMP_pressure;BME280_temperature;BME280_humidity;BME280_pressure;Samples;Min_cycle;Max_cycle;Signal;HPM_P1;HPM_P2
2022/05/04 00:00:33;;;;;;;33.67;25.52;;;10.50;99.90;;;;;;5032040;28;20026;-85
2022/05/04 00:02:59;;;;;;;31.48;24.08;;;10.40;99.90;;;;;;5032089;28;20021;-85
2022/05/04 00:05:25;;;;;;;35.33;25.85;;;10.40;99.90;;;;;;5015226;28;20120;-85
2022/05/04 00:07:50;;;;;;;35.60;26.05;;;10.40;99.90;;;;;;5015669;28;20436;-85
2022/05/04 00:10:16;;;;;;;31.27;24.63;;;10.30;99.90;;;;;;5015427;28;20396;-85
2022/05/04 00:12:42;;;;;;;37.60;25.35;;;10.30;99.90;;;;;;5031956;28;20108;-86
2022/05/04 00:15:09;;;;;;;31.00;23.95;;;10.30;99.90;;;;;;5031691;28;20084;-85
2022/05/04 00:17:35;;;;;;;28.60;21.80;;;10.30;99.90;;;;;;5031698;28;20041;-84
2022/05/04 00:20:00;;;;;;;28.05;21.33;;;10.20;99.90;;;;;;5015166;28;20033;-84
2022/05/04 00:22:26;;;;;;;30.02;22.95;;;10.20;99.90;;;;;;5015276;28;20029;-84
2022/05/04 00:24:52;;;;;;;29.40;21.65;;;10.20;99.90;;;;;;5015257;28;20550;-84
2022/05/04 00:27:18;;;;;;;29.10;21.70;;;10.20;99.90;;;;;;5015117;28;20025;-85
2022/05/04 00:29:45;;;;;;;30.38;22.95;;;10.20;99.90;;;;;;5014278;28;20033;-84
2022/05/04 00:32:12;;;;;;;33.90;25.95;;;10.20;99.90;;;;;;5031385;28;20452;-84
2022/05/04 00:34:38;;;;;;;34.72;26.15;;;10.20;99.90;;;;;;5031492;28;20087;-84
2022/05/04 00:37:04;;;;;;;34.60;24.23;;;10.30;99.90;;;;;;5031390;28;20124;-85
2022/05/04 00:39:30;;;;;;;35.85;26.50;;;10.30;99.90;;;;;;5031620;28;20041;-85
2022/05/04 00:42:24;;;;;;;37.03;27.73;;;10.30;99.90;;;;;;5032607;28;20456;-85
2022/05/04 00:44:50;;;;;;;37.88;29.15;;;10.30;99.90;;;;;;5014567;28;20033;-85
2022/05/04 00:47:16;;;;;;;36.15;26.73;;;10.30;99.90;;;;;;5030493;28;20588;-85
2022/05/04 00:49:46;;;;;;;32.88;26.17;;;10.30;99.90;;;;;;5015736;28;20048;-85
2022/05/04 00:52:13;;;;;;;28.75;24.83;;;10.40;99.90;;;;;;5035062;28;20041;-85
2022/05/04 00:54:42;;;;;;;33.67;25.98;;;10.40;99.90;;;;;;5036483;28;20393;-84
2022/05/04 00:57:08;;;;;;;34.22;23.98;;;10.50;99.90;;;;;;5018732;28;20509;-85
2022/05/04 00:59:37;;;;;;;31.10;24.42;;;10.40;99.90;;;;;;5034939;28;20091;-85
2022/05/04 01:02:04;;;;;;;27.40;22.83;;;10.50;99.90;;;;;;5018875;28;20090;-85
2022/05/04 01:04:30;;;;;;;28.23;23.40;;;10.50;99.90;;;;;;5018094;28;20380;-85
2022/05/04 01:06:56;;;;;;;30.23;22.17;;;10.50;99.90;;;;;;5018678;28;20029;-85
2022/05/04 01:09:22;;;;;;;31.95;21.75;;;10.50;99.90;;;;;;5034946;28;20029;-85
2022/05/04 01:11:48;;;;;;;30.63;21.83;;;10.50;99.90;;;;;;5018515;28;20044;-85
2022/05/04 01:14:17;;;;;;;28.30;21.63;;;10.50;99.90;;;;;;5018570;28;20080;-85
2022/05/04 01:16:48;;;;;;;23.70;19.52;;;10.50;99.90;;;;;;5035362;28;20087;-86
2022/05/04 01:19:14;;;;;;;24.75;20.38;;;10.60;99.90;;;;;;5018730;28;20052;-85
2022/05/04 01:21:40;;;;;;;24.45;19.40;;;10.60;99.90;;;;;;5035182;28;20041;-86
2022/05/04 01:24:08;;;;;;;27.17;20.38;;;10.60;99.90;;;;;;5018389;28;20030;-86
2022/05/04 01:26:34;;;;;;;26.85;19.95;;;10.50;99.90;;;;;;5018187;28;20450;-86
2022/05/04 01:29:01;;;;;;;22.85;18.15;;;10.50;99.90;;;;;;5034918;28;20045;-85
2022/05/04 01:31:27;;;;;;;22.90;17.25;;;10.50;99.90;;;;;;5018194;28;20041;-85
2022/05/04 01:33:52;;;;;;;21.60;16.15;;;10.50;99.90;;;;;;5017765;28;20373;-85
2022/05/04 01:36:18;;;;;;;20.25;15.15;;;10.50;99.90;;;;;;5033521;28;20061;-85
2022/05/04 01:38:44;;;;;;;18.23;14.38;;;10.60;99.90;;;;;;5034138;28;20543;-85
2022/05/04 01:42:02;;;;;;;16.27;13.38;;;10.60;99.90;;;;;;5033916;28;20037;-86
2022/05/04 01:43:55;;;;;;;19.90;14.57;;;10.50;99.90;;;;;;5034321;28;20037;-86
2022/05/04 01:46:21;;;;;;;17.25;13.77;;;10.50;99.90;;;;;;5018444;28;20026;-85
2022/05/04 01:48:48;;;;;;;16.10;13.80;;;10.40;99.90;;;;;;5018263;28;20123;-85
2022/05/04 01:51:14;;;;;;;17.55;13.85;;;10.40;99.90;;;;;;5018584;28;20041;-85
2022/05/04 01:53:41;;;;;;;18.55;12.82;;;10.30;99.90;;;;;;5035814;28;20033;-85
2022/05/04 01:56:07;;;;;;;16.52;12.18;;;10.30;99.90;;;;;;5017953;28;20040;-85
2022/05/04 01:58:33;;;;;;;17.25;12.10;;;10.30;99.90;;;;;;5034186;28;20550;-85
2022/05/04 02:01:01;;;;;;;15.88;11.88;;;10.30;99.90;;;;;;5017139;28;20030;-86
2022/05/04 02:03:26;;;;;;;14.23;12.38;;;10.20;99.90;;;;;;5017652;28;20040;-85
2022/05/04 02:05:52;;;;;;;17.23;12.13;;;10.20;99.90;;;;;;5017683;28;20025;-86
2022/05/04 02:08:18;;;;;;;16.80;12.32;;;10.20;99.90;;;;;;5033944;28;20036;-85
2022/05/04 02:10:45;;;;;;;19.70;11.38;;;10.20;99.90;;;;;;5017656;28;20040;-85
2022/05/04 02:13:10;;;;;;;13.95;11.63;;;10.20;99.90;;;;;;5017479;28;20431;-85
2022/05/04 02:15:36;;;;;;;12.55;11.00;;;10.20;99.90;;;;;;5034193;28;20120;-85
2022/05/04 02:18:02;;;;;;;14.68;11.75;;;10.20;99.90;;;;;;5017044;28;20443;-85
2022/05/04 02:20:27;;;;;;;14.07;11.35;;;10.20;99.90;;;;;;5033785;28;20440;-85
2022/05/04 02:22:53;;;;;;;18.75;11.85;;;10.20;99.90;;;;;;5016929;28;20033;-85
2022/05/04 02:25:19;;;;;;;13.48;10.60;;;10.30;99.90;;;;;;5033425;28;20033;-85
2022/05/04 02:27:44;;;;;;;16.67;12.30;;;10.20;99.90;;;;;;5033750;28;20039;-85
2022/05/04 02:30:13;;;;;;;15.77;12.15;;;10.20;99.90;;;;;;5034813;28;20599;-85
2022/05/04 02:32:39;;;;;;;16.30;11.88;;;10.20;99.90;;;;;;5017425;28;20124;-85
2022/05/04 02:37:57;;;;;;;20.77;14.38;;;10.10;99.90;;;;;;5033654;28;20068;-85
2022/05/04 02:40:24;;;;;;;17.17;14.00;;;10.10;99.90;;;;;;5017064;28;20504;-85
2022/05/04 02:42:50;;;;;;;18.58;13.52;;;10.10;99.90;;;;;;5016548;28;20026;-85
2022/05/04 02:45:16;;;;;;;17.10;13.35;;;10.10;99.90;;;;;;5033493;28;20049;-85
2022/05/04 02:47:41;;;;;;;17.27;13.82;;;10.10;99.90;;;;;;5033342;28;20022;-85
2022/05/04 02:50:08;;;;;;;19.50;13.50;;;10.10;99.90;;;;;;5017037;28;20028;-86
2022/05/04 02:52:33;;;;;;;23.20;15.45;;;10.00;99.90;;;;;;5016912;28;20040;-85
2022/05/04 02:54:59;;;;;;;21.75;16.65;;;10.10;99.90;;;;;;5016905;28;20586;-85
2022/05/04 02:57:25;;;;;;;21.38;16.48;;;10.00;99.90;;;;;;5016900;28;20033;-85
2022/05/04 02:59:50;;;;;;;19.65;16.05;;;9.90;99.90;;;;;;5016862;28;20014;-85
2022/05/04 03:02:29;;;;;;;23.83;15.73;;;10.00;99.90;;;;;;5016751;28;20029;-85
2022/05/04 03:05:03;;;;;;;22.38;16.58;;;10.00;99.90;;;;;;5016921;28;20040;-86
2022/05/04 03:07:29;;;;;;;21.80;16.67;;;9.90;99.90;;;;;;5032545;28;20540;-86
2022/05/04 03:09:56;;;;;;;21.05;16.45;;;9.90;99.90;;;;;;5016629;28;20121;-86
2022/05/04 03:12:22;;;;;;;25.75;18.23;;;9.90;99.90;;;;;;5032008;28;20120;-86
2022/05/04 03:14:48;;;;;;;21.95;17.17;;;9.90;99.90;;;;;;5015847;28;20037;-85
2022/05/04 03:17:14;;;;;;;23.10;18.33;;;9.90;99.90;;;;;;5008697;28;20033;-85
2022/05/04 03:19:40;;;;;;;26.10;18.67;;;9.90;99.90;;;;;;5033005;28;20706;-85
2022/05/04 03:22:06;;;;;;;27.10;20.10;;;9.90;99.90;;;;;;5016059;28;20116;-85
2022/05/04 03:24:33;;;;;;;31.05;19.15;;;9.90;99.90;;;;;;5016624;28;20477;-86
2022/05/04 03:26:59;;;;;;;28.10;19.70;;;9.90;99.90;;;;;;5033295;28;20029;-85
2022/05/04 03:29:24;;;;;;;26.88;18.17;;;9.90;99.90;;;;;;5032780;28;20037;-86
2022/05/04 03:35:37;;;;;;;24.55;19.08;;;9.90;99.90;;;;;;5034070;28;20187;-86
2022/05/04 03:38:03;;;;;;;29.35;21.40;;;9.90;99.90;;;;;;5015456;28;20119;-86
2022/05/04 03:40:29;;;;;;;28.13;19.98;;;9.90;99.90;;;;;;5032439;28;20033;-86
2022/05/04 03:42:55;;;;;;;26.40;20.45;;;9.90;99.90;;;;;;5016244;28;20132;-86
2022/05/04 03:45:20;;;;;;;30.27;21.48;;;9.90;99.90;;;;;;5015748;28;20069;-86
2022/05/04 03:47:46;;;;;;;33.63;23.75;;;9.90;99.90;;;;;;5015493;28;20029;-85
2022/05/04 03:50:12;;;;;;;31.50;21.15;;;9.90;99.90;;;;;;5030936;28;20120;-85
2022/05/04 03:52:37;;;;;;;29.55;20.80;;;9.90;99.90;;;;;;5031744;28;20029;-85
2022/05/04 03:55:04;;;;;;;30.77;21.42;;;10.00;99.90;;;;;;5015465;28;20037;-86
2022/05/04 03:57:29;;;;;;;30.35;21.80;;;10.00;99.90;;;;;;5015437;28;20037;-85
2022/05/04 03:59:55;;;;;;;26.67;20.98;;;9.90;99.90;;;;;;5031786;28;20022;-82
2022/05/04 04:02:21;;;;;;;28.80;21.00;;;9.90;99.90;;;;;;5015067;28;20079;-83
2022/05/04 04:04:46;;;;;;;36.55;26.10;;;9.90;99.90;;;;;;5015270;28;20040;-82
2022/05/04 04:07:12;;;;;;;36.17;25.00;;;9.90;99.90;;;;;;5015406;28;20029;-83
2022/05/04 04:09:38;;;;;;;33.03;25.60;;;9.90;99.90;;;;;;5015314;28;20433;-83
2022/05/04 04:12:04;;;;;;;35.30;25.58;;;9.90;99.90;;;;;;5031930;28;20029;-82
2022/05/04 04:14:29;;;;;;;36.13;25.67;;;9.90;99.90;;;;;;5015391;28;20041;-82
2022/05/04 04:16:55;;;;;;;33.38;23.60;;;9.90;99.90;;;;;;5015263;28;20497;-82
2022/05/04 04:19:21;;;;;;;31.98;23.05;;;9.80;99.90;;;;;;5032471;28;20691;-82
2022/05/04 04:21:53;;;;;;;34.72;25.15;;;9.80;99.90;;;;;;5014794;28;20504;-82
2022/05/04 04:24:22;;;;;;;34.35;25.85;;;9.90;99.90;;;;;;5031167;28;20048;-82
2022/05/04 04:26:48;;;;;;;37.42;26.60;;;9.80;99.90;;;;;;5015250;28;20029;-83
2022/05/04 04:29:36;;;;;;;38.28;27.98;;;9.90;99.90;;;;;;5031621;28;20034;-83
2022/05/04 04:32:01;;;;;;;42.88;29.67;;;9.90;99.90;;;;;;5015409;28;20040;-83
2022/05/04 04:34:27;;;;;;;48.20;32.85;;;9.90;99.90;;;;;;5031367;28;20029;-83
2022/05/04 04:36:53;;;;;;;42.08;29.67;;;9.90;99.90;;;;;;5015063;28;20477;-83
2022/05/04 04:39:18;;;;;;;40.72;30.55;;;10.00;99.90;;;;;;5014471;28;20029;-83
2022/05/04 04:41:44;;;;;;;44.17;30.88;;;10.00;99.90;;;;;;5031423;28;20029;-82
2022/05/04 04:44:10;;;;;;;43.63;32.10;;;10.00;99.90;;;;;;5014876;28;20037;-82
2022/05/04 04:46:35;;;;;;;36.80;27.85;;;10.10;99.90;;;;;;5014684;28;20040;-82
2022/05/04 04:49:01;;;;;;;43.88;30.25;;;10.20;99.90;;;;;;5030955;28;20033;-82
2022/05/04 04:51:27;;;;;;;36.78;27.65;;;10.20;99.90;;;;;;5031287;28;20037;-82
2022/05/04 04:53:53;;;;;;;41.75;26.55;;;10.20;99.90;;;;;;5014783;28;20121;-82
2022/05/04 04:56:18;;;;;;;37.30;27.38;;;10.30;99.90;;;;;;5031005;28;20535;-82
2022/05/04 04:58:44;;;;;;;40.63;27.65;;;10.40;99.90;;;;;;5030666;28;20512;-82
2022/05/04 05:01:10;;;;;;;38.42;25.40;;;10.50;99.90;;;;;;5031049;28;20489;-82
2022/05/04 05:03:35;;;;;;;33.95;25.60;;;10.50;99.90;;;;;;5014305;28;20041;-82
2022/05/04 05:06:01;;;;;;;35.67;25.63;;;10.60;99.90;;;;;;5014374;28;20029;-82
2022/05/04 05:08:27;;;;;;;33.00;24.20;;;10.60;99.90;;;;;;5031132;28;20029;-83
2022/05/04 05:10:52;;;;;;;30.05;23.27;;;10.70;99.90;;;;;;5014707;28;20401;-83
2022/05/04 05:13:18;;;;;;;33.63;23.83;;;10.80;99.90;;;;;;5014506;28;20041;-82
2022/05/04 05:16:17;;;;;;;27.25;21.58;;;10.80;99.90;;;;;;5014744;28;20033;-82
2022/05/04 05:18:36;;;;;;;;;;;10.90;99.90;;;;;;5030417;28;20787;-82
2022/05/04 05:21:02;;;;;;;30.15;22.75;;;11.00;99.90;;;;;;5047774;28;19955;-82
2022/05/04 05:23:28;;;;;;;27.23;20.05;;;11.10;99.90;;;;;;5014795;28;20029;-82
2022/05/04 05:25:54;;;;;;;26.08;21.52;;;11.10;99.90;;;;;;5014401;28;20030;-83
2022/05/04 05:28:19;;;;;;;24.55;20.90;;;11.10;99.90;;;;;;5030917;28;20088;-83
2022/05/04 05:30:45;;;;;;;29.92;22.25;;;11.20;99.90;;;;;;5014354;28;20037;-82
2022/05/04 05:33:11;;;;;;;25.45;20.83;;;11.20;99.90;;;;;;5014061;28;20042;-82
2022/05/04 05:35:37;;;;;;;24.92;20.42;;;11.20;99.90;;;;;;5015788;28;20034;-82
2022/05/04 05:38:03;;;;;;;33.42;22.80;;;11.20;99.90;;;;;;5018198;28;20034;-83
2022/05/04 05:40:29;;;;;;;26.90;23.08;;;11.30;99.90;;;;;;5018460;28;20083;-82
2022/05/04 05:42:54;;;;;;;27.10;20.35;;;11.40;99.90;;;;;;5034810;28;20032;-82
2022/05/04 05:45:20;;;;;;;30.60;21.50;;;11.50;99.90;;;;;;5018336;28;20483;-82
2022/05/04 05:47:46;;;;;;;25.30;19.95;;;11.60;99.90;;;;;;5034816;28;20036;-82
2022/05/04 05:50:27;;;;;;;31.08;21.85;;;11.70;99.90;;;;;;5017833;28;20030;-82
2022/05/04 05:52:53;;;;;;;25.02;20.35;;;11.90;99.90;;;;;;5017868;28;20030;-82
2022/05/04 05:55:18;;;;;;;25.33;20.70;;;12.00;99.90;;;;;;5034322;28;20902;-82
2022/05/04 05:57:44;;;;;;;26.77;20.08;;;12.20;99.90;;;;;;5017842;28;20346;-83
2022/05/04 06:00:10;;;;;;;22.77;18.40;;;12.30;99.90;;;;;;5034648;28;20092;-82
2022/05/04 06:02:39;;;;;;;20.98;17.35;;;12.40;99.90;;;;;;5035547;28;20084;-83
2022/05/04 06:05:05;;;;;;;24.88;18.35;;;12.50;99.90;;;;;;5017962;28;20508;-82
2022/05/04 06:07:31;;;;;;;23.25;18.10;;;12.60;99.90;;;;;;5017009;28;20705;-82
2022/05/04 06:09:56;;;;;;;21.65;16.33;;;12.70;99.90;;;;;;5017404;28;20037;-82
2022/05/04 06:12:22;;;;;;;22.30;16.63;;;12.90;99.90;;;;;;5017381;28;20507;-82
2022/05/04 06:14:48;;;;;;;19.40;14.65;;;13.10;99.90;;;;;;5017171;28;20040;-82
2022/05/04 06:17:13;;;;;;;21.67;13.27;;;13.10;99.90;;;;;;5034953;28;20155;-82
2022/05/04 06:19:39;;;;;;;13.48;11.20;;;13.20;99.90;;;;;;5017120;28;20041;-82
2022/05/04 06:22:05;;;;;;;16.35;12.00;;;13.10;99.90;;;;;;5016865;28;20036;-82
2022/05/04 06:25:01;;;;;;;15.80;12.88;;;13.20;99.90;;;;;;5016897;28;20032;-83
2022/05/04 06:27:29;;;;;;;21.40;17.15;;;13.20;99.90;;;;;;5016873;28;20033;-83
2022/05/04 06:35:24;;;;;;;16.63;14.25;;;13.00;99.90;;;;;;5033480;28;20392;-82
2022/05/04 06:37:49;;;;;;;20.02;16.35;;;12.90;99.90;;;;;;5016702;28;20041;-82
2022/05/04 06:40:15;;;;;;;17.95;15.10;;;13.00;99.90;;;;;;5033352;28;20021;-82
2022/05/04 06:42:41;;;;;;;19.08;15.45;;;13.00;99.90;;;;;;5033688;28;20029;-82
2022/05/04 06:45:07;;;;;;;16.35;14.38;;;13.20;99.90;;;;;;5016824;28;20503;-82
2022/05/04 06:47:33;;;;;;;15.00;13.45;;;13.20;99.90;;;;;;5016013;28;20025;-82
2022/05/04 06:49:59;;;;;;;16.92;14.02;;;13.50;99.90;;;;;;5016769;28;20029;-83
2022/05/04 06:52:25;;;;;;;16.67;13.98;;;13.50;99.90;;;;;;5016922;28;20017;-83
2022/05/04 06:54:52;;;;;;;17.92;13.75;;;13.60;99.90;;;;;;5016901;28;20025;-83
2022/05/04 06:57:17;;;;;;;19.40;14.10;;;13.80;99.90;;;;;;5032852;28;20088;-83
2022/05/04 06:59:43;;;;;;;21.15;13.55;;;13.90;99.90;;;;;;5032992;28;20574;-82
2022/05/04 07:02:09;;;;;;;15.60;13.57;;;13.80;99.90;;;;;;5032633;28;20500;-83
2022/05/04 07:04:34;;;;;;;18.27;13.38;;;13.90;99.90;;;;;;5032392;28;20040;-82
2022/05/04 07:07:00;;;;;;;21.83;14.00;;;13.80;99.90;;;;;;5016286;28;20025;-83
2022/05/04 07:09:26;;;;;;;17.75;15.00;;;13.90;99.90;;;;;;5016340;28;20060;-83
2022/05/04 07:11:52;;;;;;;21.35;16.13;;;13.80;99.90;;;;;;5032471;28;20083;-83
2022/05/04 07:14:19;;;;;;;21.92;16.25;;;13.80;99.90;;;;;;5033300;28;20092;-83
2022/05/04 07:16:45;;;;;;;17.23;14.77;;;13.50;99.90;;;;;;5016227;28;20065;-83
2022/05/04 07:19:11;;;;;;;18.00;16.10;;;13.50;99.90;;;;;;5016225;28;20033;-82
2022/05/04 07:21:36;;;;;;;18.17;15.32;;;13.40;99.90;;;;;;5032812;28;20075;-83
2022/05/04 07:24:02;;;;;;;18.67;14.95;;;13.50;99.90;;;;;;5032767;28;20033;-82
2022/05/04 07:26:28;;;;;;;18.15;15.02;;;13.40;99.90;;;;;;5032727;28;20030;-83
2022/05/04 07:28:54;;;;;;;18.67;15.13;;;13.50;99.90;;;;;;5016006;28;20025;-83
2022/05/04 07:31:20;;;;;;;21.35;14.10;;;13.60;99.90;;;;;;5016106;28;20869;-83
2022/05/04 07:33:45;;;;;;;18.52;14.45;;;13.80;99.90;;;;;;5016083;28;20034;-83
2022/05/04 07:36:11;;;;;;;17.73;14.30;;;14.00;99.90;;;;;;5015962;28;20037;-83
2022/05/04 07:38:36;;;;;;;18.80;13.93;;;14.30;99.90;;;;;;5015980;28;20033;-83
2022/05/04 07:43:46;;;;;;;14.98;11.48;;;14.70;99.90;;;;;;5031623;28;20091;-82
2022/05/04 07:46:12;;;;;;;18.60;13.10;;;14.90;99.90;;;;;;5031576;28;20025;-83
2022/05/04 07:48:38;;;;;;;14.65;12.50;;;14.90;99.90;;;;;;5015382;28;20508;-83
2022/05/04 07:51:03;;;;;;;16.90;10.40;;;14.90;99.90;;;;;;5031738;28;20480;-83
2022/05/04 07:53:29;;;;;;;13.00;10.07;;;15.00;99.90;;;;;;5032829;28;20025;-83
2022/05/04 07:55:55;;;;;;;12.82;9.85;;;15.00;99.90;;;;;;5015387;28;20017;-83
2022/05/04 07:58:20;;;;;;;13.40;10.55;;;15.10;99.90;;;;;;5014821;28;20042;-83
2022/05/04 08:06:14;;;;;;;14.40;10.23;;;15.90;99.90;;;;;;5033513;28;20041;-83
2022/05/04 08:08:40;;;;;;;14.23;10.02;;;16.20;99.90;;;;;;5032178;28;20398;-83
2022/05/04 08:11:06;;;;;;;13.80;11.70;;;16.70;99.90;;;;;;5031703;28;20037;-83
2022/05/04 08:13:34;;;;;;;11.88;9.40;;;17.10;99.90;;;;;;5015302;28;20881;-83
2022/05/04 08:16:11;;;;;;;9.90;7.82;;;17.50;99.90;;;;;;5031993;28;20044;-83
2022/05/04 08:18:40;;;;;;;8.43;7.35;;;17.70;99.90;;;;;;5014832;28;20058;-83
2022/05/04 08:21:09;;;;;;;16.00;8.60;;;17.80;99.90;;;;;;5015257;28;20038;-84
2022/05/04 08:23:35;;;;;;;11.30;8.18;;;18.00;99.90;;;;;;5033024;28;20112;-84
2022/05/04 08:26:01;;;;;;;9.43;8.07;;;18.40;99.90;;;;;;5015665;28;20079;-83
2022/05/04 08:28:28;;;;;;;9.75;7.20;;;19.10;99.90;;;;;;5015171;28;20492;-83
2022/05/04 08:30:54;;;;;;;10.30;7.95;;;19.50;99.90;;;;;;5015345;28;20400;-84
2022/05/04 08:33:20;;;;;;;8.43;7.53;;;19.80;99.90;;;;;;5015294;28;20038;-84
2022/05/04 08:35:47;;;;;;;9.63;7.10;;;20.30;99.90;;;;;;5014901;28;20031;-83
2022/05/04 08:38:12;;;;;;;13.68;8.07;;;20.10;99.90;;;;;;5015088;28;20037;-84
2022/05/04 08:40:38;;;;;;;11.23;8.27;;;19.60;99.90;;;;;;5033590;28;20040;-84
2022/05/04 08:43:07;;;;;;;9.90;7.47;;;20.20;99.90;;;;;;5015252;28;20124;-84
2022/05/04 08:45:38;;;;;;;8.35;7.53;;;21.10;99.90;;;;;;5015293;28;20021;-84
2022/05/04 08:48:08;;;;;;;15.55;7.78;;;22.10;99.90;;;;;;5015069;28;20042;-83
2022/05/04 08:50:35;;;;;;;8.15;7.35;;;22.80;99.90;;;;;;5014599;28;20033;-83
2022/05/04 08:53:02;;;;;;;8.45;7.65;;;23.00;99.90;;;;;;5015009;28;20037;-83
2022/05/04 08:55:28;;;;;;;9.63;7.68;;;22.70;99.90;;;;;;5032752;28;20116;-83
2022/05/04 08:57:54;;;;;;;8.88;7.00;;;23.10;99.90;;;;;;5015024;28;20053;-83
2022/05/04 09:00:20;;;;;;;11.55;7.90;;;23.10;99.90;;;;;;5014859;28;20064;-84
2022/05/04 09:02:47;;;;;;;8.73;7.82;;;22.80;99.90;;;;;;5015159;28;20034;-83
2022/05/04 09:05:16;;;;;;;17.08;8.80;;;21.70;99.90;;;;;;5015166;28;20026;-83
2022/05/04 09:07:43;;;;;;;10.80;8.73;;;20.90;99.90;;;;;;5014756;28;20060;-83
2022/05/04 09:10:20;;;;;;;10.70;9.60;;;20.60;99.90;;;;;;5014857;28;20079;-83
2022/05/04 09:12:47;;;;;;;10.77;9.68;;;20.30;99.90;;;;;;5035101;28;20551;-83
2022/05/04 09:15:21;;;;;;;11.63;10.20;;;19.70;99.90;;;;;;5035188;28;20022;-83
2022/05/04 09:17:54;;;;;;;16.52;11.00;;;19.40;99.90;;;;;;5018447;28;20725;-83
2022/05/04 09:23:37;;;;;;;14.00;10.60;;;18.80;99.90;;;;;;5035977;28;20026;-83
2022/05/04 09:26:07;;;;;;;13.68;10.82;;;19.40;99.90;;;;;;5032185;28;20037;-83
2022/05/04 09:28:35;;;;;;;11.97;9.47;;;20.00;99.90;;;;;;5035110;28;20095;-83
2022/05/04 09:31:05;;;;;;;11.73;9.30;;;20.40;99.90;;;;;;5018372;28;20048;-83
2022/05/04 09:33:34;;;;;;;14.98;9.23;;;21.70;99.90;;;;;;5035025;28;20038;-83
2022/05/04 09:36:05;;;;;;;11.02;9.05;;;22.00;99.90;;;;;;5018320;28;20041;-83
2022/05/04 09:46:50;;;;;;;12.25;9.30;;;23.20;99.90;;;;;;5035609;28;20036;-83
2022/05/04 09:49:31;;;;;;;10.00;8.80;;;23.90;99.90;;;;;;5034182;28;20433;-83
2022/05/04 09:52:03;;;;;;;11.95;8.88;;;23.80;99.90;;;;;;5034609;28;20117;-84
2022/05/04 09:54:30;;;;;;;10.77;9.45;;;23.80;99.90;;;;;;5017655;28;20041;-83
2022/05/04 09:56:57;;;;;;;13.32;8.68;;;23.00;99.90;;;;;;5034703;28;20030;-84
2022/05/04 09:59:26;;;;;;;14.82;9.32;;;23.20;99.90;;;;;;5017698;28;20045;-84
2022/05/04 10:01:53;;;;;;;12.95;10.15;;;22.80;99.90;;;;;;5017785;28;20029;-82
2022/05/04 10:04:20;;;;;;;11.40;10.20;;;22.20;99.90;;;;;;5017969;28;20095;-83
2022/05/04 10:06:51;;;;;;;13.60;11.88;;;22.80;99.90;;;;;;5018039;28;20504;-82
2022/05/04 10:09:17;;;;;;;16.73;13.20;;;22.40;99.90;;;;;;5034455;28;20067;-84
2022/05/04 10:11:43;;;;;;;16.83;11.73;;;22.10;99.90;;;;;;5035349;28;20037;-83
2022/05/04 10:14:15;;;;;;;12.48;9.98;;;22.30;99.90;;;;;;5017013;28;20032;-83
2022/05/04 10:16:55;;;;;;;11.18;9.95;;;22.80;99.90;;;;;;5033573;28;20041;-83
2022/05/04 10:19:39;;;;;;;11.32;9.35;;;23.30;99.90;;;;;;5017028;28;20048;-83
2022/05/04 10:22:09;;;;;;;9.25;7.65;;;23.90;99.90;;;;;;5016607;28;20091;-83
2022/05/04 10:24:36;;;;;;;10.25;8.40;;;24.00;99.90;;;;;;5017068;28;20033;-83
2022/05/04 10:27:18;;;;;;;11.07;8.50;;;24.60;99.90;;;;;;5016004;28;20030;-83
2022/05/04 10:32:56;;;;;;;11.43;8.70;;;24.50;99.50;;;;;;5033653;28;20048;-83
2022/05/04 10:35:42;;;;;;;9.80;7.80;;;25.00;99.50;;;;;;5033950;28;20026;-83
2022/05/04 10:38:13;;;;;;;9.38;7.78;;;25.40;97.70;;;;;;5033373;28;20026;-83
2022/05/04 10:40:47;;;;;;;15.27;9.07;;;26.20;99.00;;;;;;5017496;28;20025;-84
2022/05/04 10:43:34;;;;;;;11.77;7.55;;;26.80;95.60;;;;;;5017151;28;20030;-84
2022/05/04 10:46:21;;;;;;;10.93;7.35;;;27.30;93.90;;;;;;5033731;28;20038;-84
2022/05/04 10:49:07;;;;;;;11.85;8.75;;;28.00;91.40;;;;;;5016907;28;20034;-84
2022/05/04 10:51:35;;;;;;;7.43;5.57;;;27.30;93.20;;;;;;5017012;28;20040;-84
2022/05/04 10:54:04;;;;;;;7.07;5.50;;;25.20;84.50;;;;;;5016641;28;20037;-83
2022/05/04 10:56:40;;;;;;;7.40;5.45;;;22.90;91.50;;;;;;5016162;28;20041;-83
2022/05/04 10:59:06;;;;;;;6.75;5.30;;;20.30;92.50;;;;;;5016200;28;20044;-82
2022/05/04 11:01:34;;;;;;;6.75;4.85;;;18.80;97.60;;;;;;5016487;28;20057;-83
2022/05/04 11:04:14;;;;;;;7.00;6.10;;;18.00;98.90;;;;;;5034163;28;20095;-83
2022/05/04 11:06:40;;;;;;;6.57;5.93;;;17.50;99.90;;;;;;5016198;28;20029;-83
2022/05/04 11:09:29;;;;;;;9.52;6.07;;;17.20;99.90;;;;;;5032830;28;20032;-83
2022/05/04 11:12:00;;;;;;;9.27;6.15;;;17.10;99.90;;;;;;5016245;28;20029;-83
2022/05/04 11:14:26;;;;;;;9.60;6.22;;;16.60;99.90;;;;;;5016269;28;20039;-82
2022/05/04 11:16:53;;;;;;;12.60;6.43;;;16.20;99.90;;;;;;5016375;28;20034;-83
2022/05/04 11:19:23;;;;;;;13.18;6.28;;;16.20;99.90;;;;;;5016456;28;20040;-83
2022/05/04 11:21:48;;;;;;;10.40;6.93;;;16.20;99.90;;;;;;5016891;28;20048;-83
2022/05/04 11:24:16;;;;;;;8.50;6.65;;;15.60;99.90;;;;;;5032636;28;20033;-83
2022/05/04 11:26:44;;;;;;;8.07;7.03;;;15.10;99.90;;;;;;5016170;28;20033;-83
2022/05/04 11:29:09;;;;;;;10.43;7.30;;;14.60;99.90;;;;;;5016205;28;20111;-83
2022/05/04 11:31:35;;;;;;;11.40;6.35;;;14.50;99.90;;;;;;5033883;28;20034;-85
2022/05/04 11:34:01;;;;;;;7.85;6.32;;;14.40;99.90;;;;;;5015381;28;20132;-84
2022/05/04 11:36:27;;;;;;;8.90;6.88;;;14.20;99.90;;;;;;5032765;28;20060;-83
2022/05/04 11:38:53;;;;;;;9.95;7.25;;;14.10;99.90;;;;;;5016021;28;20045;-83
2022/05/04 11:41:20;;;;;;;10.27;6.20;;;14.00;99.90;;;;;;5015969;28;20025;-83
2022/05/04 11:43:49;;;;;;;9.48;7.03;;;14.10;99.90;;;;;;5015926;28;20053;-83
2022/05/04 11:46:16;;;;;;;7.63;5.93;;;14.10;99.90;;;;;;5015870;28;20026;-84
2022/05/04 11:48:44;;;;;;;13.05;6.90;;;14.00;99.90;;;;;;5016123;28;20053;-84
2022/05/04 11:51:11;;;;;;;28.10;10.05;;;13.80;99.90;;;;;;5016206;28;20033;-84
2022/05/04 11:53:38;;;;;;;17.27;10.38;;;13.40;99.90;;;;;;5016193;28;20572;-82
2022/05/04 11:56:05;;;;;;;21.65;10.70;;;12.90;99.90;;;;;;5032289;28;20655;-83
2022/05/04 11:58:33;;;;;;;18.27;10.88;;;12.70;99.90;;;;;;5031813;28;20038;-82
2022/05/04 12:01:00;;;;;;;20.88;11.52;;;12.40;99.90;;;;;;5032235;28;20033;-83
2022/05/04 12:03:27;;;;;;;20.27;15.90;;;12.30;99.90;;;;;;5015583;28;20030;-83
2022/05/04 12:05:54;;;;;;;28.85;21.10;;;12.20;99.90;;;;;;5031690;28;20033;-82
2022/05/04 12:08:21;;;;;;;78.20;42.60;;;12.10;99.90;;;;;;5032009;28;20071;-84
2022/05/04 12:10:51;;;;;;;76.38;44.88;;;12.20;99.90;;;;;;5015725;28;20440;-83
2022/05/04 12:13:23;;;;;;;32.55;22.35;;;12.40;99.90;;;;;;5032317;28;20752;-83
2022/05/04 12:15:50;;;;;;;24.38;15.23;;;12.70;99.90;;;;;;5015749;28;20037;-83
2022/05/04 12:18:16;;;;;;;21.02;14.43;;;13.10;99.90;;;;;;5015418;28;20033;-83
2022/05/04 12:20:46;;;;;;;15.55;11.75;;;13.20;99.90;;;;;;5033282;28;20693;-82
2022/05/04 12:23:13;;;;;;;15.88;12.20;;;13.40;99.90;;;;;;5015063;28;20109;-83
2022/05/04 12:25:40;;;;;;;15.85;10.95;;;13.60;99.90;;;;;;5014953;28;20037;-83
2022/05/04 12:28:07;;;;;;;12.02;10.40;;;13.90;99.90;;;;;;5015388;28;20033;-82
2022/05/04 12:33:35;;;;;;;14.93;10.18;;;13.70;99.90;;;;;;5031660;28;20033;-82
2022/05/04 12:36:08;;;;;;;17.65;12.02;;;13.40;99.90;;;;;;5015062;28;20141;-83
2022/05/04 12:38:45;;;;;;;19.60;12.95;;;13.10;99.90;;;;;;5014544;28;20485;-83
2022/05/04 12:41:12;;;;;;;16.67;12.18;;;13.00;99.90;;;;;;5014790;28;20060;-83
2022/05/04 12:43:39;;;;;;;15.95;12.90;;;13.00;99.90;;;;;;5014807;28;20033;-83
2022/05/04 12:46:10;;;;;;;17.13;14.73;;;12.90;99.90;;;;;;5030548;28;20099;-83
2022/05/04 12:48:38;;;;;;;20.23;15.50;;;12.90;99.90;;;;;;5014834;28;20040;-82
2022/05/04 12:51:04;;;;;;;24.40;16.60;;;12.90;99.90;;;;;;5032399;28;20029;-82
2022/05/04 12:53:30;;;;;;;24.90;17.98;;;13.00;99.90;;;;;;5023834;28;20037;-82
2022/05/04 12:58:40;;;;;;;28.30;20.98;;;13.00;99.90;;;;;;5030775;28;20065;-83
2022/05/04 13:01:07;;;;;;;23.08;18.30;;;13.00;99.90;;;;;;5031375;28;20132;-83
2022/05/04 13:03:33;;;;;;;24.77;17.40;;;13.00;99.90;;;;;;5014983;28;20029;-82
2022/05/04 13:05:59;;;;;;;21.83;17.63;;;12.90;99.90;;;;;;5031016;28;20061;-83
2022/05/04 13:08:25;;;;;;;26.40;17.25;;;12.90;99.90;;;;;;5014131;28;20519;-83
2022/05/04 13:10:52;;;;;;;18.42;15.18;;;12.90;99.90;;;;;;5013763;28;20034;-82
2022/05/04 13:13:19;;;;;;;22.98;15.27;;;12.90;99.90;;;;;;5014822;28;20083;-83